Time;durP1;ratioP1;P1;durP2;ratioP2;P2;SDS_P1;SDS_P2;PMS_P1;PMS_P2;Temp;Humidity;BMP_temperature;BMP_pressure;BME280_temperature;BME280_humidity;BME280_pressure;Samples;Min_cycle;Max_cycle;Signal;HPM_P1;HPM_P2
2022/08/09 00:02:27;;;;;;;5.47;4.95;;;;;;;18.87;74.62;95157.09;5077439;28;20048;-66
2022/08/09 00:04:54;;;;;;;8.55;6.55;;;;;;;18.72;75.18;95146.59;5079820;28;20048;-66
2022/08/09 00:07:42;;;;;;;11.18;5.18;;;;;;;18.78;74.87;95156.06;5080983;28;20040;-66
2022/08/09 00:10:10;;;;;;;14.50;5.30;;;;;;;18.81;74.49;95160.81;5079740;28;20767;-66
2022/08/09 00:12:48;;;;;;;12.00;5.22;;;;;;;18.74;75.50;95165.56;5080128;28;20062;-66
2022/08/09 00:15:20;;;;;;;7.90;5.70;;;;;;;18.71;75.93;95160.84;5081290;28;20105;-66
2022/08/09 00:18:07;;;;;;;7.32;5.20;;;;;;;18.82;75.71;95164.25;5080275;28;20059;-66
2022/08/09 00:20:39;;;;;;;8.18;5.95;;;;;;;18.88;76.02;95166.56;5079608;28;20040;-66
2022/08/09 00:23:17;;;;;;;9.27;6.40;;;;;;;18.94;77.04;95163.88;5063476;28;20132;-66
2022/08/09 00:26:07;;;;;;;7.72;5.18;;;;;;;18.96;76.66;95161.75;5077377;28;20579;-66
2022/08/09 00:28:38;;;;;;;7.57;5.18;;;;;;;19.02;76.21;95166.72;5079168;28;20535;-66
2022/08/09 00:31:05;;;;;;;19.15;5.45;;;;;;;19.07;76.20;95164.06;5084536;28;20050;-66
2022/08/09 00:33:53;;;;;;;6.85;5.32;;;;;;;19.16;75.76;95166.91;5078801;28;20040;-66
2022/08/09 00:36:22;;;;;;;12.52;5.60;;;;;;;19.26;75.63;95177.34;5079911;28;20064;-66
2022/08/09 00:38:57;;;;;;;12.32;6.50;;;;;;;19.25;75.23;95152.03;5080122;28;20036;-66
2022/08/09 00:41:24;;;;;;;8.55;6.00;;;;;;;19.47;74.21;95163.97;5083660;28;20576;-66
2022/08/09 00:44:11;;;;;;;9.50;6.47;;;;;;;19.66;74.18;95175.41;5078692;28;20039;-65
2022/08/09 00:46:56;;;;;;;8.23;5.05;;;;;;;19.79;74.45;95173.19;5082482;28;20051;-66
2022/08/09 00:49:33;;;;;;;8.75;5.00;;;;;;;19.89;73.78;95174.94;5075210;28;20532;-66
2022/08/09 00:52:04;;;;;;;12.85;4.95;;;;;;;19.98;74.88;95187.25;5077721;28;20637;-66
2022/08/09 00:54:41;;;;;;;6.68;5.05;;;;;;;20.01;76.68;95185.91;5070909;28;20052;-66
2022/08/09 00:57:11;;;;;;;8.50;4.88;;;;;;;20.02;78.34;95183.00;5081039;28;20164;-67
2022/08/09 00:59:43;;;;;;;6.07;4.72;;;;;;;20.05;80.02;95179.00;5076281;28;20051;-66
2022/08/09 01:02:18;;;;;;;10.27;5.93;;;;;;;20.04;82.71;95175.56;5077730;28;20045;-66
2022/08/09 01:04:57;;;;;;;7.35;5.43;;;;;;;20.05;85.86;95171.06;5074556;28;20101;-66
2022/08/09 01:07:55;;;;;;;10.45;5.90;;;;;;;20.00;90.04;95163.97;5080557;28;20291;-66
2022/08/09 01:10:34;;;;;;;14.45;7.90;;;;;;;20.02;91.85;95164.50;5074319;28;20060;-66
2022/08/09 01:13:21;;;;;;;9.73;6.68;;;;;;;19.99;93.88;95159.75;5081173;28;20048;-67
2022/08/09 01:15:51;;;;;;;10.27;6.85;;;;;;;20.02;94.50;95156.56;5074857;28;20079;-67
2022/08/09 01:18:26;;;;;;;11.15;7.55;;;;;;;19.96;96.45;95147.09;5079094;28;20820;-67
2022/08/09 01:21:05;;;;;;;14.00;8.30;;;;;;;19.70;100.00;95151.88;5073677;28;20058;-66
2022/08/09 01:24:15;;;;;;;12.93;8.23;;;;;;;19.65;100.00;95157.97;5058649;28;20098;-66
2022/08/09 01:27:05;;;;;;;9.02;7.25;;;;;;;19.58;100.00;95157.53;5062695;28;20052;-67
2022/08/09 01:29:54;;;;;;;7.28;6.43;;;;;;;19.37;100.00;95145.56;5076241;28;20433;-66
2022/08/09 01:32:28;;;;;;;14.70;7.75;;;;;;;19.41;100.00;95142.13;5074405;28;20166;-66
2022/08/09 01:35:21;;;;;;;17.77;7.75;;;;;;;19.40;100.00;95145.03;5075918;28;20071;-66
2022/08/09 01:38:09;;;;;;;10.93;6.88;;;;;;;19.38;100.00;95163.00;5075021;28;20047;-67
2022/08/09 01:40:47;;;;;;;12.77;7.82;;;;;;;19.31;100.00;95163.31;5071897;28;20055;-66
2022/08/09 01:43:31;;;;;;;18.60;7.97;;;;;;;19.33;100.00;95165.69;5076368;28;20040;-67
2022/08/09 01:46:28;;;;;;;11.00;7.78;;;;;;;19.32;100.00;95158.81;5071664;28;21242;-67
2022/08/09 01:49:03;;;;;;;10.27;8.55;;;;;;;19.32;100.00;95153.53;5079719;28;20046;-66
2022/08/09 01:51:40;;;;;;;15.27;8.13;;;;;;;19.28;100.00;95148.84;5077201;28;20040;-65
2022/08/09 01:54:12;;;;;;;12.43;8.57;;;;;;;19.18;100.00;95153.41;5064324;28;20044;-66
2022/08/09 01:56:43;;;;;;;12.93;8.63;;;;;;;19.07;100.00;95152.72;5078148;28;20068;-66
2022/08/09 01:59:20;;;;;;;12.13;8.55;;;;;;;18.99;100.00;95155.94;5078468;28;20054;-66
2022/08/09 02:01:53;;;;;;;13.15;8.07;;;;;;;18.95;100.00;95149.63;5061902;28;20138;-66
2022/08/09 02:04:27;;;;;;;12.80;8.45;;;;;;;18.83;100.00;95137.56;5079239;28;20778;-67
2022/08/09 02:07:14;;;;;;;12.23;8.35;;;;;;;18.86;100.00;95150.22;5081225;28;20039;-66
2022/08/09 02:10:09;;;;;;;11.70;9.20;;;;;;;18.86;100.00;95147.56;5078059;28;20109;-66
2022/08/09 02:12:37;;;;;;;14.15;9.70;;;;;;;18.85;100.00;95140.75;5075468;28;20044;-66
2022/08/09 02:15:07;;;;;;;13.00;10.73;;;;;;;18.80;100.00;95143.38;5079712;28;20051;-66
2022/08/09 02:17:48;;;;;;;13.57;10.65;;;;;;;18.73;100.00;95135.75;5080226;28;20055;-66
2022/08/09 02:20:45;;;;;;;22.42;12.02;;;;;;;18.67;100.00;95138.69;5074216;28;20757;-67
2022/08/09 02:23:34;;;;;;;19.70;12.77;;;;;;;18.61;100.00;95132.69;5077271;28;20036;-66
2022/08/09 02:26:12;;;;;;;17.35;13.52;;;;;;;18.58;100.00;95135.06;5077136;28;20052;-65
2022/08/09 02:28:55;;;;;;;;;;;;;;;18.53;100.00;95138.56;5076818;28;20724;-66
2022/08/09 02:31:29;;;;;;;19.60;12.05;;;;;;;18.48;100.00;95141.22;5079161;28;19931;-66
2022/08/09 02:34:11;;;;;;;21.98;12.23;;;;;;;18.49;100.00;95150.69;5075719;28;20153;-66
2022/08/09 02:37:00;;;;;;;20.88;14.18;;;;;;;18.46;100.00;95144.13;5080542;28;20042;-67
2022/08/09 02:39:37;;;;;;;19.75;13.20;;;;;;;18.47;100.00;95143.03;5077599;28;20528;-65
2022/08/09 02:42:15;;;;;;;19.85;13.48;;;;;;;18.29;100.00;95128.66;5079525;28;20052;-66
2022/08/09 02:44:51;;;;;;;17.05;13.63;;;;;;;18.36;100.00;95144.16;5076849;28;20105;-67
2022/08/09 02:47:21;;;;;;;17.65;12.82;;;;;;;18.33;100.00;95144.72;5077497;28;20044;-66
2022/08/09 02:50:10;;;;;;;17.73;13.15;;;;;;;18.34;100.00;95151.56;5080097;28;20743;-66
2022/08/09 02:52:52;;;;;;;19.55;14.43;;;;;;;18.25;100.00;95145.28;5080641;28;20051;-66
2022/08/09 02:55:24;;;;;;;18.60;14.40;;;;;;;18.19;100.00;95138.47;5079251;28;20131;-66
2022/08/09 02:58:13;;;;;;;19.63;14.23;;;;;;;18.14;100.00;95145.31;5078216;28;20039;-66
2022/08/09 03:01:02;;;;;;;21.55;14.80;;;;;;;18.11;100.00;95142.44;5075363;28;20055;-66
2022/08/09 03:03:34;;;;;;;22.17;13.82;;;;;;;17.99;100.00;95129.59;5080979;28;20036;-66
2022/08/09 03:06:22;;;;;;;18.67;14.20;;;;;;;17.98;100.00;95138.53;5079034;28;20036;-66
2022/08/09 03:08:54;;;;;;;22.13;14.40;;;;;;;17.88;100.00;95138.56;5078354;28;20047;-66
2022/08/09 03:11:22;;;;;;;25.83;15.18;;;;;;;17.88;100.00;95138.56;5078595;28;20040;-66
2022/08/09 03:14:10;;;;;;;21.13;14.88;;;;;;;17.85;100.00;95147.00;5076807;28;20032;-65
2022/08/09 03:16:38;;;;;;;28.40;17.33;;;;;;;17.81;100.00;95143.31;5077977;28;20814;-65
2022/08/09 03:19:12;;;;;;;23.08;15.68;;;;;;;17.75;100.00;95150.44;5076305;28;20036;-66
2022/08/09 03:21:59;;;;;;;23.52;15.48;;;;;;;17.57;100.00;95149.16;5076453;28;20036;-66
2022/08/09 03:24:29;;;;;;;19.75;15.23;;;;;;;17.57;100.00;95149.16;5077031;28;20036;-66
2022/08/09 03:27:16;;;;;;;19.17;14.10;;;;;;;17.56;100.00;95158.16;5077351;28;21416;-66
2022/08/09 03:29:50;;;;;;;20.35;13.82;;;;;;;17.38;100.00;95157.63;5077517;28;20131;-66
2022/08/09 03:32:30;;;;;;;24.15;14.98;;;;;;;17.46;100.00;95150.25;5075781;28;20131;-66
2022/08/09 03:34:59;;;;;;;25.35;17.48;;;;;;;17.50;100.00;95153.94;5082549;28;20925;-66
2022/08/09 03:37:27;;;;;;;25.05;17.25;;;;;;;17.33;100.00;95149.75;5082104;28;20024;-66
2022/08/09 03:40:14;;;;;;;26.52;17.73;;;;;;;17.31;100.00;95157.13;5060147;28;20425;-65
2022/08/09 03:42:44;;;;;;;25.20;18.52;;;;;;;17.28;100.00;95157.63;5083531;28;20443;-66
2022/08/09 03:45:12;;;;;;;26.15;19.80;;;;;;;17.26;100.00;95154.50;5072447;28;20113;-66
2022/08/09 03:47:42;;;;;;;28.05;19.45;;;;;;;17.26;100.00;95151.84;5080731;28;20048;-66
2022/08/09 03:50:13;;;;;;;31.05;19.08;;;;;;;17.18;100.00;95152.41;5077945;28;20735;-66
2022/08/09 03:53:00;;;;;;;33.30;20.00;;;;;;;17.17;100.00;95150.81;5081784;28;20067;-66
2022/08/09 03:55:29;;;;;;;30.20;19.25;;;;;;;17.17;100.00;95156.84;5077888;28;20471;-66
2022/08/09 03:58:02;;;;;;;32.17;19.20;;;;;;;17.15;100.00;95166.09;5078212;28;20580;-66
2022/08/09 04:00:44;;;;;;;31.45;18.50;;;;;;;17.13;100.00;95166.34;5077159;28;20044;-66
2022/08/09 04:03:15;;;;;;;28.70;19.00;;;;;;;17.07;100.00;95156.88;5081349;28;20158;-66
2022/08/09 04:06:01;;;;;;;27.05;19.17;;;;;;;17.12;100.00;95169.22;5076727;28;20066;-66
2022/08/09 04:08:33;;;;;;;34.05;19.70;;;;;;;17.12;100.00;95166.59;5083156;28;20028;-66
2022/08/09 04:11:01;;;;;;;32.95;19.75;;;;;;;17.16;100.00;95170.28;5077792;28;20040;-65
2022/08/09 04:13:28;;;;;;;30.58;20.58;;;;;;;17.21;100.00;95172.91;5080822;28;20585;-66
2022/08/09 04:16:15;;;;;;;27.02;18.40;;;;;;;17.27;100.00;95171.88;5080484;28;20044;-66
2022/08/09 04:18:46;;;;;;;32.67;21.48;;;;;;;17.32;100.00;95174.50;5081979;28;20032;-66
2022/08/09 04:21:16;;;;;;;33.03;20.67;;;;;;;17.32;100.00;95158.72;5081757;28;21592;-65
2022/08/09 04:23:45;;;;;;;32.55;19.02;;;;;;;17.48;100.00;95174.47;5082009;28;20059;-66
2022/08/09 04:26:23;;;;;;;27.00;19.05;;;;;;;17.63;100.00;95179.72;5076166;28;21491;-65
2022/08/09 04:28:49;;;;;;;26.05;18.08;;;;;;;17.68;100.00;95177.09;5084741;28;20583;-66
2022/08/09 04:31:20;;;;;;;24.35;17.17;;;;;;;17.74;100.00;95181.28;5070449;28;20032;-65
2022/08/09 04:33:52;;;;;;;21.35;15.82;;;;;;;17.80;100.00;95179.41;5080848;28;20135;-66
2022/08/09 04:36:27;;;;;;;20.70;15.63;;;;;;;17.88;100.00;95186.00;5080394;28;20071;-65
2022/08/09 04:38:57;;;;;;;20.25;14.93;;;;;;;17.95;100.00;95183.88;5090612;28;20077;-71
2022/08/09 04:41:29;;;;;;;18.65;13.90;;;;;;;18.04;100.00;95190.19;5082956;28;20126;-76
2022/08/09 04:44:00;;;;;;;22.50;14.07;;;;;;;18.15;100.00;95183.03;5067766;28;20040;-73
2022/08/09 04:46:39;;;;;;;16.63;13.40;;;;;;;18.24;100.00;95188.50;5089193;28;20051;-74
2022/08/09 04:49:36;;;;;;;40.10;15.38;;;;;;;18.37;100.00;95187.94;5083176;28;20040;-72
2022/08/09 04:52:22;;;;;;;16.90;14.10;;;;;;;18.45;100.00;95187.38;5066945;28;20043;-72
2022/08/09 04:54:54;;;;;;;25.65;14.25;;;;;;;18.59;100.00;95199.97;5079144;28;20544;-73
2022/08/09 04:57:22;;;;;;;15.93;12.77;;;;;;;18.67;100.00;95186.19;5083753;28;20043;-72
2022/08/09 04:59:51;;;;;;;15.82;11.52;;;;;;;18.85;100.00;95201.44;5063712;28;20042;-72
2022/08/09 05:02:22;;;;;;;15.40;10.98;;;;;;;19.00;100.00;95199.75;5062816;28;20043;-72
2022/08/09 05:04:48;;;;;;;13.75;10.65;;;;;;;19.15;100.00;95204.91;5080453;28;20054;-71
2022/08/09 05:07:21;;;;;;;14.30;10.77;;;;;;;19.21;100.00;95195.91;5066363;28;21420;-73
2022/08/09 05:09:49;;;;;;;16.23;12.27;;;;;;;19.39;100.00;95214.75;5062031;28;20137;-72
2022/08/09 05:12:18;;;;;;;17.83;10.50;;;;;;;19.55;100.00;95204.84;5080879;28;20789;-72
2022/08/09 05:14:53;;;;;;;13.27;10.35;;;;;;;19.67;100.00;95192.06;5079130;28;20471;-72
2022/08/09 05:17:20;;;;;;;20.08;10.48;;;;;;;19.86;100.00;95210.66;5081358;28;20082;-72
2022/08/09 05:20:08;;;;;;;16.88;10.68;;;;;;;20.00;100.00;95205.47;5057429;28;20149;-72
2022/08/09 05:22:37;;;;;;;14.40;10.32;;;;;;;20.04;100.00;95198.56;5062133;28;20634;-72
2022/08/09 05:25:25;;;;;;;15.60;10.23;;;;;;;20.22;100.00;95199.69;5072662;28;20042;-72
2022/08/09 05:27:58;;;;;;;14.40;10.80;;;;;;;20.32;100.00;95196.91;5082097;28;20086;-72
2022/08/09 05:30:26;;;;;;;16.35;10.00;;;;;;;20.50;100.00;95203.31;5078739;28;20036;-72
2022/08/09 05:32:56;;;;;;;20.70;10.65;;;;;;;20.61;100.00;95204.00;5055975;28;20720;-72
2022/08/09 05:35:24;;;;;;;14.88;10.27;;;;;;;20.65;100.00;95194.41;5058594;28;20047;-72
2022/08/09 05:37:54;;;;;;;12.82;9.15;;;;;;;20.80;97.35;95211.97;5059968;28;20036;-72
2022/08/09 05:40:22;;;;;;;17.67;9.68;;;;;;;20.80;96.54;95207.44;5075859;28;20051;-72
2022/08/09 05:42:49;;;;;;;15.90;9.70;;;;;;;20.87;96.81;95207.09;5058350;28;20071;-72
2022/08/09 05:45:16;;;;;;;13.77;9.07;;;;;;;20.98;95.13;95213.03;5081378;28;20074;-72
2022/08/09 05:47:43;;;;;;;11.18;7.85;;;;;;;21.08;94.84;95212.84;5076768;28;20101;-72
2022/08/09 05:50:22;;;;;;;9.25;8.18;;;;;;;21.16;95.16;95212.22;5080077;28;20048;-72
2022/08/09 05:53:10;;;;;;;12.73;9.23;;;;;;;21.29;93.83;95207.25;5075526;28;20047;-72
2022/08/09 05:55:57;;;;;;;17.77;9.95;;;;;;;21.23;95.16;95187.22;5064224;28;20043;-72
2022/08/09 05:58:24;;;;;;;20.67;9.30;;;;;;;21.40;93.59;95219.25;5057642;28;20145;-72
2022/08/09 06:00:52;;;;;;;13.68;10.15;;;;;;;21.51;93.09;95220.69;5083241;28;20032;-72
2022/08/09 06:03:19;;;;;;;21.23;9.25;;;;;;;21.64;92.52;95213.06;5076815;28;20044;-72
2022/08/09 06:05:46;;;;;;;17.83;8.38;;;;;;;21.73;90.78;95214.78;5080459;28;20043;-72
2022/08/09 06:08:26;;;;;;;22.23;9.50;;;;;;;21.86;90.46;95213.22;5074582;28;20699;-72
2022/08/09 06:10:54;;;;;;;17.00;8.50;;;;;;;21.79;91.03;95215.47;5075694;28;20723;-72
2022/08/09 06:13:21;;;;;;;16.60;9.38;;;;;;;21.88;92.92;95211.06;5075454;28;20085;-72
2022/08/09 06:15:49;;;;;;;14.77;7.65;;;;;;;22.08;90.39;95215.19;5065591;28;20050;-72
2022/08/09 06:18:19;;;;;;;12.38;7.63;;;;;;;22.20;88.51;95219.22;5044357;28;20052;-72
2022/08/09 06:20:53;;;;;;;8.52;6.88;;;;;;;22.28;89.55;95219.34;5079229;28;20036;-72
2022/08/09 06:23:25;;;;;;;12.23;6.60;;;;;;;22.32;86.68;95217.66;5078586;28;20642;-72
2022/08/09 06:26:13;;;;;;;16.27;7.57;;;;;;;22.23;86.95;95211.44;5078801;28;20586;-72
2022/08/09 06:28:46;;;;;;;11.82;6.65;;;;;;;22.46;86.03;95228.28;5076588;28;20114;-72
2022/08/09 06:31:13;;;;;;;10.68;7.78;;;;;;;22.56;87.17;95235.22;5057180;28;20036;-72
2022/08/09 06:33:39;;;;;;;12.00;7.72;;;;;;;22.60;86.22;95222.97;5080304;28;20074;-73
2022/08/09 06:36:14;;;;;;;10.45;7.40;;;;;;;22.75;85.60;95213.09;5059467;28;20117;-73
2022/08/09 06:38:44;;;;;;;8.93;7.25;;;;;;;22.78;85.71;95207.16;5076022;28;20043;-73
2022/08/09 06:41:16;;;;;;;16.77;8.38;;;;;;;22.96;85.52;95221.38;5060097;28;20040;-73
2022/08/09 06:43:47;;;;;;;11.30;7.40;;;;;;;23.12;83.26;95216.53;5077114;28;20053;-73
2022/08/09 06:46:14;;;;;;;9.60;7.15;;;;;;;23.16;83.15;95217.53;5075723;28;20835;-73
2022/08/09 06:49:01;;;;;;;9.23;6.43;;;;;;;23.22;80.30;95216.31;5060440;28;20042;-72
2022/08/09 06:51:29;;;;;;;7.20;5.75;;;;;;;23.35;77.56;95215.47;5087518;28;20036;-72
2022/08/09 06:53:56;;;;;;;12.85;6.95;;;;;;;23.48;75.73;95217.28;5079391;28;20048;-71
2022/08/09 06:56:27;;;;;;;14.60;7.93;;;;;;;23.52;75.82;95208.72;5072974;28;20425;-72
2022/08/09 06:58:57;;;;;;;10.77;7.57;;;;;;;23.77;75.83;95215.22;5063388;28;20647;-71
2022/08/09 07:01:43;;;;;;;13.63;7.45;;;;;;;23.91;73.67;95209.84;5052878;28;21128;-69
2022/08/09 07:04:24;;;;;;;10.10;6.28;;;;;;;23.98;72.45;95210.97;5073561;28;20074;-68
2022/08/09 07:06:53;;;;;;;10.93;6.68;;;;;;;24.12;73.25;95210.88;5071915;28;20044;-68
2022/08/09 07:09:29;;;;;;;15.52;7.57;;;;;;;24.31;70.59;95213.31;5079571;28;20040;-69
2022/08/09 07:12:16;;;;;;;11.75;7.18;;;;;;;24.33;68.85;95213.00;5075919;28;20127;-68
2022/08/09 07:14:46;;;;;;;13.70;7.55;;;;;;;24.28;68.77;95205.94;5080196;28;20048;-69
2022/08/09 07:17:18;;;;;;;12.35;6.32;;;;;;;24.54;69.20;95206.03;5075702;28;20052;-69
2022/08/09 07:19:45;;;;;;;9.85;6.78;;;;;;;24.69;67.38;95209.34;5075952;28;20047;-69
2022/08/09 07:22:17;;;;;;;15.98;7.43;;;;;;;24.84;67.68;95216.88;5079562;28;20040;-68
2022/08/09 07:25:00;;;;;;;13.77;6.60;;;;;;;25.03;65.61;95210.44;5096385;28;20044;-69
2022/08/09 07:27:30;;;;;;;7.35;6.10;;;;;;;25.29;65.08;95205.91;5096184;28;20067;-68
2022/08/09 07:30:01;;;;;;;10.95;5.97;;;;;;;25.47;63.96;95203.25;5085038;28;20119;-69
2022/08/09 07:32:29;;;;;;;12.65;6.15;;;;;;;25.65;63.23;95210.09;5080969;28;20040;-69
2022/08/09 07:35:04;;;;;;;8.70;5.80;;;;;;;25.84;63.45;95214.28;5079863;28;20044;-69
2022/08/09 07:37:38;;;;;;;11.15;6.18;;;;;;;25.97;61.94;95204.56;5077001;28;20469;-69
2022/08/09 07:40:12;;;;;;;10.77;5.90;;;;;;;26.06;60.96;95214.06;5078118;28;20048;-67
2022/08/09 07:42:48;;;;;;;8.05;6.13;;;;;;;26.19;60.64;95206.19;5085373;28;20046;-68
2022/08/09 07:45:16;;;;;;;8.45;4.80;;;;;;;26.35;57.36;95209.88;5076166;28;20141;-67
2022/08/09 07:48:03;;;;;;;12.48;5.40;;;;;;;26.46;56.99;95211.06;5085791;28;20036;-67
2022/08/09 07:50:30;;;;;;;11.75;5.55;;;;;;;26.48;56.59;95208.84;5078532;28;20044;-67
2022/08/09 07:53:03;;;;;;;11.48;5.82;;;;;;;26.48;53.83;95214.19;5064072;28;20529;-67
2022/08/09 07:55:31;;;;;;;10.20;5.05;;;;;;;26.58;53.89;95217.56;5076343;28;20135;-67
2022/08/09 07:58:18;;;;;;;12.02;5.85;;;;;;;26.75;51.81;95217.50;5087524;28;20037;-68
2022/08/09 08:00:52;;;;;;;11.73;5.78;;;;;;;26.82;50.97;95212.44;5080207;28;20744;-68
2022/08/09 08:03:32;;;;;;;10.52;4.95;;;;;;;26.98;50.57;95206.50;5075776;28;20173;-69
2022/08/09 08:06:03;;;;;;;9.10;5.55;;;;;;;27.10;49.72;95206.56;5082278;28;20532;-69
2022/08/09 08:08:31;;;;;;;12.23;5.80;;;;;;;27.09;49.69;95207.66;5081758;28;20032;-70
2022/08/09 08:11:18;;;;;;;7.38;4.88;;;;;;;27.33;48.80;95203.56;5082414;28;20036;-70
2022/08/09 08:14:05;;;;;;;11.88;4.78;;;;;;;27.22;47.36;95193.22;5083349;28;20047;-70
2022/08/09 08:16:32;;;;;;;7.95;4.57;;;;;;;27.33;48.12;95198.22;5080460;28;20036;-70
2022/08/09 08:19:00;;;;;;;10.27;4.72;;;;;;;27.60;44.92;95192.28;5082643;28;20036;-70
2022/08/09 08:21:30;;;;;;;11.50;4.68;;;;;;;27.97;45.91;95195.03;5078928;28;20040;-70
2022/08/09 08:23:56;;;;;;;6.60;4.45;;;;;;;28.36;44.83;95184.78;5082668;28;20516;-70
2022/08/09 08:26:37;;;;;;;13.38;4.53;;;;;;;28.71;42.72;95189.69;5076777;28;20058;-71
2022/08/09 08:29:23;;;;;;;6.55;4.15;;;;;;;28.82;41.59;95189.22;5064831;28;20571;-68
2022/08/09 08:31:55;;;;;;;8.13;4.63;;;;;;;28.73;41.18;95184.75;5078997;28;20042;-69
2022/08/09 08:34:32;;;;;;;5.35;3.60;;;;;;;29.02;36.76;95182.88;5080777;28;20047;-69
2022/08/09 08:37:02;;;;;;;7.18;3.00;;;;;;;29.28;34.94;95176.31;5079106;28;20051;-69
2022/08/09 08:39:28;;;;;;;4.57;3.28;;;;;;;29.69;35.09;95182.38;5079362;28;20047;-69
2022/08/09 08:42:09;;;;;;;6.30;3.45;;;;;;;30.07;35.69;95181.81;5087385;27;20636;-69
2022/08/09 08:44:36;;;;;;;6.00;3.30;;;;;;;30.38;33.12;95184.84;5079672;28;20050;-69
2022/08/09 08:47:05;;;;;;;7.43;3.67;;;;;;;30.53;32.84;95192.09;5083094;28;20052;-69
2022/08/09 08:49:39;;;;;;;4.93;2.70;;;;;;;30.76;31.12;95183.38;5079484;28;20044;-69
2022/08/09 08:52:19;;;;;;;5.65;2.60;;;;;;;31.01;31.08;95184.69;5078651;28;20128;-69
2022/08/09 08:55:07;;;;;;;6.78;1.40;;;;;;;31.41;26.34;95180.84;5081234;28;20048;-70
2022/08/09 08:57:34;;;;;;;9.93;1.48;;;;;;;31.66;26.13;95167.09;5084717;28;20047;-69
2022/08/09 09:00:06;;;;;;;3.05;1.02;;;;;;;31.35;21.76;95182.28;5079079;28;20044;-69
2022/08/09 09:02:57;;;;;;;5.00;1.20;;;;;;;31.44;22.83;95184.75;5082055;28;20036;-69
2022/08/09 09:05:34;;;;;;;9.43;4.18;;;;;;;31.50;22.12;95182.56;5080316;28;20047;-69
2022/08/09 09:08:24;;;;;;;7.40;1.20;;;;;;;31.63;22.66;95175.88;5076941;28;20040;-69
2022/08/09 09:11:02;;;;;;;1.85;1.23;;;;;;;31.90;21.93;95178.63;5077186;28;20048;-69
2022/08/09 09:13:40;;;;;;;2.53;1.23;;;;;;;32.08;23.59;95182.41;5063868;28;20052;-69
2022/08/09 09:16:27;;;;;;;3.30;1.58;;;;;;;32.11;22.88;95168.22;5090853;27;20047;-69
2022/08/09 09:18:57;;;;;;;1.60;1.10;;;;;;;32.50;22.66;95167.25;5081253;28;20037;-69
2022/08/09 09:21:57;;;;;;;5.72;1.50;;;;;;;32.79;21.13;95179.22;5078023;28;20074;-69
2022/08/09 09:24:28;;;;;;;3.97;1.10;;;;;;;32.87;22.67;95175.47;5080275;28;20036;-71
2022/08/09 09:26:57;;;;;;;3.60;1.17;;;;;;;32.97;20.52;95168.63;5079685;28;20027;-69
2022/08/09 09:29:37;;;;;;;2.35;1.48;;;;;;;33.08;21.17;95172.25;5079361;28;20032;-69
2022/08/09 09:32:26;;;;;;;5.20;1.13;;;;;;;33.17;20.06;95166.63;5076670;28;20043;-69
2022/08/09 09:35:09;;;;;;;6.38;1.55;;;;;;;33.11;20.09;95162.66;5082518;28;20112;-69
2022/08/09 09:37:44;;;;;;;3.35;1.10;;;;;;;32.93;19.02;95174.00;5078093;28;20101;-69
2022/08/09 09:40:11;;;;;;;6.03;1.20;;;;;;;32.81;21.01;95166.16;5081370;28;20068;-69
2022/08/09 09:42:39;;;;;;;2.85;1.42;;;;;;;32.87;21.16;95167.38;5081975;28;20105;-69
2022/08/09 09:45:12;;;;;;;1.63;0.75;;;;;;;33.13;20.07;95166.56;5081610;28;20040;-69
2022/08/09 09:47:51;;;;;;;6.32;1.00;;;;;;;33.50;20.93;95163.09;5079075;28;20043;-68
2022/08/09 09:50:45;;;;;;;2.67;1.33;;;;;;;33.90;18.81;95168.88;5062951;28;20051;-69
2022/08/09 09:53:22;;;;;;;2.45;0.77;;;;;;;33.86;19.10;95165.38;5077122;28;20069;-69
2022/08/09 09:56:09;;;;;;;1.60;1.05;;;;;;;33.50;19.77;95162.31;5062341;28;20040;-69
2022/08/09 09:58:47;;;;;;;6.05;1.40;;;;;;;33.09;20.93;95159.53;5074975;28;20044;-69
2022/08/09 10:01:18;;;;;;;4.05;1.55;;;;;;;32.82;21.75;95156.91;5080551;28;20335;-68
2022/08/09 10:04:16;;;;;;;2.55;1.35;;;;;;;32.87;20.88;95164.69;5080065;28;20039;-68
2022/08/09 10:06:56;;;;;;;7.07;1.40;;;;;;;33.01;20.84;95150.59;5079601;28;20052;-69
2022/08/09 10:09:48;;;;;;;2.05;1.40;;;;;;;33.27;20.70;95157.84;5076786;28;20047;-69
2022/08/09 10:12:36;;;;;;;3.60;1.58;;;;;;;33.39;20.39;95153.34;5088605;28;20108;-68
2022/08/09 10:15:14;;;;;;;5.03;1.48;;;;;;;33.34;20.68;95149.81;5070161;28;20473;-69
2022/08/09 10:17:54;;;;;;;3.75;1.60;;;;;;;33.51;21.76;95153.06;5090772;28;20047;-69
2022/08/09 10:20:36;;;;;;;6.63;1.48;;;;;;;33.65;21.27;95142.41;5094961;28;20568;-68
2022/08/09 10:23:18;;;;;;;3.50;1.50;;;;;;;33.83;21.62;95147.22;5078072;28;20044;-70
2022/08/09 10:25:48;;;;;;;2.75;1.63;;;;;;;34.08;21.44;95152.81;5056337;28;20051;-70
2022/08/09 10:28:37;;;;;;;4.80;1.90;;;;;;;34.38;23.77;95141.06;5073216;28;20577;-70
2022/08/09 10:31:07;;;;;;;6.22;2.30;;;;;;;34.54;22.51;95146.97;5073218;28;20050;-70
2022/08/09 10:33:54;;;;;;;7.22;1.63;;;;;;;34.22;20.79;95149.47;5078695;28;20070;-70
2022/08/09 10:36:41;;;;;;;5.68;1.80;;;;;;;34.26;22.10;95152.97;5075854;28;20879;-70
2022/08/09 10:39:11;;;;;;;4.20;1.95;;;;;;;34.19;20.77;95152.91;5078781;28;20104;-70
2022/08/09 10:41:44;;;;;;;;;;;;;;;34.40;19.69;95136.84;5079144;28;20048;-70
2022/08/09 10:44:21;;;;;;;2.28;1.40;;;;;;;34.90;20.14;95149.06;5081114;28;19976;-70
2022/08/09 10:47:17;;;;;;;2.38;1.40;;;;;;;35.25;19.60;95153.09;5076482;28;20066;-74
2022/08/09 10:50:23;;;;;;;2.72;2.13;;;;;;;35.65;18.36;95151.22;5062079;28;20028;-74
2022/08/09 10:53:15;;;;;;;2.30;2.07;;;;;;;35.67;17.65;95143.50;5058461;28;20060;-74
2022/08/09 10:55:44;;;;;;;3.50;1.80;;;;;;;35.54;18.02;95146.56;5075940;28;20040;-74
2022/08/09 10:58:29;;;;;;;8.07;2.00;;;;;;;35.59;18.11;95153.56;5060029;28;20131;-75
2022/08/09 11:00:59;;;;;;;8.65;2.00;;;;;;;35.53;20.02;95139.63;5059562;28;20048;-75
2022/08/09 11:04:07;;;;;;;3.08;1.85;;;;;;;35.75;19.16;95150.50;5077612;28;20036;-75
2022/08/09 11:06:57;;;;;;;4.90;2.53;;;;;;;35.96;20.51;95138.88;5059476;28;20020;-74
2022/08/09 11:09:38;;;;;;;3.35;1.88;;;;;;;35.71;20.33;95152.41;5080355;28;20085;-71
2022/08/09 11:12:25;;;;;;;5.25;2.35;;;;;;;35.64;20.69;95150.47;5076708;28;20036;-69
2022/08/09 11:15:18;;;;;;;6.97;2.30;;;;;;;35.74;21.38;95138.09;5077794;28;20028;-69
2022/08/09 11:17:51;;;;;;;;;;;;;;;35.80;19.84;95131.16;5061544;28;20047;-67
2022/08/09 11:20:40;;;;;;;4.63;2.43;;;;;;;36.02;22.20;95144.72;5085527;28;20088;-67
2022/08/09 11:23:09;;;;;;;7.18;2.80;;;;;;;35.98;20.79;95131.94;5082996;28;21039;-67
2022/08/09 11:25:39;;;;;;;9.32;2.05;;;;;;;35.39;20.46;95145.78;5082985;28;20036;-66
2022/08/09 11:28:35;;;;;;;6.95;2.78;;;;;;;34.88;20.90;95143.28;5079825;28;20127;-66
2022/08/09 11:31:40;;;;;;;2.25;2.05;;;;;;;34.15;21.85;95135.88;5082807;28;20036;-65
2022/08/09 11:34:21;;;;;;;4.25;2.13;;;;;;;33.06;22.52;95128.69;5079944;28;20130;-65
2022/08/09 11:36:50;;;;;;;4.88;2.10;;;;;;;32.33;23.67;95120.03;5084548;28;20055;-68
2022/08/09 11:39:20;;;;;;;4.32;2.00;;;;;;;32.50;22.57;95124.91;5083575;28;20048;-68
2022/08/09 11:41:50;;;;;;;5.40;2.10;;;;;;;32.81;23.30;95101.44;5077938;28;20170;-69
2022/08/09 11:44:43;;;;;;;5.07;2.15;;;;;;;33.50;22.75;95127.22;5043190;28;20162;-67
2022/08/09 11:47:10;;;;;;;2.60;2.22;;;;;;;33.69;23.21;95127.03;5079200;28;20055;-69
2022/08/09 11:50:01;;;;;;;5.15;2.10;;;;;;;34.31;22.49;95128.28;5082564;28;20135;-69
2022/08/09 11:52:59;;;;;;;5.97;2.35;;;;;;;34.58;22.80;95130.75;5077648;28;20047;-68
2022/08/09 11:55:48;;;;;;;5.32;2.78;;;;;;;34.95;22.44;95118.94;5081131;28;20032;-69
2022/08/09 11:58:18;;;;;;;3.10;1.83;;;;;;;35.47;21.68;95116.00;5087052;28;20054;-69
2022/08/09 12:01:05;;;;;;;2.92;2.50;;;;;;;35.75;20.74;95118.00;5084719;28;20515;-69
2022/08/09 12:03:42;;;;;;;5.05;2.50;;;;;;;35.95;20.58;95116.44;5089479;28;20050;-69
2022/08/09 12:06:25;;;;;;;2.65;2.17;;;;;;;35.91;19.51;95126.50;5086214;28;21425;-68
2022/08/09 12:09:08;;;;;;;7.72;2.58;;;;;;;36.14;20.07;95111.75;5090075;28;20059;-69
2022/08/09 12:12:01;;;;;;;6.30;2.17;;;;;;;36.11;19.81;95117.97;5085795;28;20055;-69